Time;durP1;ratioP1;P1;durP2;ratioP2;P2;SDS_P1;SDS_P2;PMS_P1;PMS_P2;Temp;Humidity;BMP_temperature;BMP_pressure;BME280_temperature;BME280_humidity;BME280_pressure;Samples;Min_cycle;Max_cycle;Signal;HPM_P1;HPM_P2
2022/04/02 00:00:28;;;;;;;0.20;0.20;;;;;;;19.58;35.47;100868.09;5139616;27;20047;-32
2022/04/02 00:02:55;;;;;;;0.20;0.20;;;;;;;19.56;35.68;100857.34;5118829;27;20129;-32
2022/04/02 00:05:20;;;;;;;0.20;0.20;;;;;;;19.57;35.47;100863.69;5138553;27;20043;-33
2022/04/02 00:07:46;;;;;;;0.20;0.20;;;;;;;19.55;35.80;100862.03;5144177;27;20075;-33
2022/04/02 00:10:12;;;;;;;0.20;0.20;;;;;;;19.57;35.64;100869.22;5122688;27;20089;-35
2022/04/02 00:12:39;;;;;;;0.20;0.20;;;;;;;19.55;35.70;100867.56;5126302;27;20065;-30
2022/04/02 00:15:05;;;;;;;0.20;0.20;;;;;;;19.55;35.61;100867.56;5124174;27;20224;-32
2022/04/02 00:17:32;;;;;;;0.20;0.20;;;;;;;19.55;35.58;100864.78;5139875;27;20074;-32
2022/04/02 00:19:57;;;;;;;0.20;0.20;;;;;;;19.55;35.56;100875.84;5141489;27;20066;-33
2022/04/02 00:22:23;;;;;;;0.20;0.20;;;;;;;19.54;35.60;100874.19;5146648;27;20065;-31
2022/04/02 00:24:49;;;;;;;0.20;0.20;;;;;;;19.55;35.64;100872.25;5147190;27;20312;-33
2022/04/02 00:27:14;;;;;;;0.20;0.20;;;;;;;19.54;35.72;100868.66;5143054;27;20067;-30
2022/04/02 00:29:41;;;;;;;0.20;0.20;;;;;;;19.54;35.72;100876.13;5124952;27;20085;-32
2022/04/02 00:32:08;;;;;;;0.20;0.20;;;;;;;19.53;35.74;100883.59;5143963;27;20085;-32
2022/04/02 00:34:33;;;;;;;0.20;0.20;;;;;;;19.53;35.72;100880.00;5143327;27;20101;-34
2022/04/02 00:36:59;;;;;;;0.20;0.20;;;;;;;19.53;35.76;100878.06;5122521;27;20486;-36
2022/04/02 00:39:25;;;;;;;0.20;0.20;;;;;;;19.53;35.46;100874.50;5138248;27;20046;-35
2022/04/02 00:41:51;;;;;;;0.20;0.20;;;;;;;19.52;35.50;100879.19;5134509;27;20050;-30
2022/04/02 00:44:17;;;;;;;0.20;0.20;;;;;;;19.53;35.77;100877.25;5121656;27;20097;-33
2022/04/02 00:46:43;;;;;;;0.20;0.20;;;;;;;19.52;35.66;100881.13;5125889;27;20481;-34
2022/04/02 00:49:11;;;;;;;0.20;0.20;;;;;;;19.51;35.83;100872.00;5131098;27;20051;-32
2022/04/02 00:51:41;;;;;;;0.20;0.20;;;;;;;19.52;35.65;100870.09;5126130;27;20054;-32
2022/04/02 00:54:10;;;;;;;0.20;0.20;;;;;;;19.51;35.85;100869.22;5143934;27;20283;-36
2022/04/02 00:56:37;;;;;;;;;;;;;;;19.51;35.86;100872.00;5124768;27;20512;-33
2022/04/02 00:59:02;;;;;;;0.20;0.20;;;;;;;19.50;35.50;100878.63;5141499;27;19991;-30
2022/04/02 01:01:28;;;;;;;0.20;0.20;;;;;;;19.50;35.70;100878.63;5142501;27;20451;-33
2022/04/02 01:03:53;;;;;;;0.20;0.20;;;;;;;19.50;35.58;100878.63;5137567;27;20045;-32
2022/04/02 01:06:19;;;;;;;0.20;0.20;;;;;;;19.50;35.73;100869.53;5140098;27;20051;-33
2022/04/02 01:08:46;;;;;;;0.20;0.20;;;;;;;19.49;35.68;100882.50;5119671;27;20050;-36
2022/04/02 01:11:12;;;;;;;0.20;0.20;;;;;;;19.50;35.73;100881.41;5136296;27;20385;-36
2022/04/02 01:13:37;;;;;;;0.20;0.20;;;;;;;19.50;35.79;100881.41;5145133;27;20470;-34
2022/04/02 01:16:03;;;;;;;0.20;0.20;;;;;;;19.49;35.53;100879.75;5138172;27;20039;-32
2022/04/02 01:18:29;;;;;;;0.20;0.20;;;;;;;19.49;35.67;100879.75;5139930;27;20047;-31
2022/04/02 01:20:55;;;;;;;0.20;0.20;;;;;;;19.50;35.69;100891.63;5140054;27;20192;-31
2022/04/02 01:23:28;;;;;;;0.20;0.20;;;;;;;19.49;35.57;100888.03;5137803;27;20047;-37
2022/04/02 01:25:56;;;;;;;0.20;0.20;;;;;;;19.49;35.60;100884.44;5145444;27;20038;-35
2022/04/02 01:28:22;;;;;;;0.20;0.20;;;;;;;19.48;35.58;100880.03;5140147;27;20133;-32
2022/04/02 01:30:48;;;;;;;0.20;0.20;;;;;;;19.48;35.59;100877.28;5143200;27;20070;-31
2022/04/02 01:33:13;;;;;;;0.20;0.20;;;;;;;19.47;35.56;100870.09;5133668;27;20635;-33
2022/04/02 01:35:40;;;;;;;0.20;0.20;;;;;;;19.48;35.69;100880.03;5142722;27;20133;-36
2022/04/02 01:38:06;;;;;;;0.20;0.20;;;;;;;19.48;35.55;100882.81;5140233;27;20041;-33
2022/04/02 01:40:32;;;;;;;0.20;0.20;;;;;;;19.48;35.60;100883.63;5134067;27;20043;-33
2022/04/02 01:42:57;;;;;;;0.20;0.20;;;;;;;19.47;35.61;100881.13;5138601;27;20174;-34
2022/04/02 01:45:23;;;;;;;0.20;0.20;;;;;;;19.46;35.87;100877.53;5142291;27;20046;-34
2022/04/02 01:47:51;;;;;;;0.20;0.20;;;;;;;19.47;35.66;100887.50;5122889;27;20074;-38
2022/04/02 01:50:17;;;;;;;0.20;0.20;;;;;;;19.46;35.56;100888.59;5120727;27;20100;-33
2022/04/02 01:52:43;;;;;;;0.20;0.20;;;;;;;19.46;35.70;100890.53;5143279;27;20093;-33
2022/04/02 01:55:09;;;;;;;0.20;0.20;;;;;;;19.46;35.93;100885.00;5138977;27;20478;-35
2022/04/02 01:57:36;;;;;;;0.20;0.20;;;;;;;19.46;35.85;100885.84;5139788;27;20434;-36
2022/04/02 02:00:03;;;;;;;0.20;0.20;;;;;;;19.45;35.63;100884.19;5138954;27;20078;-33
2022/04/02 02:02:29;;;;;;;0.20;0.20;;;;;;;19.45;35.74;100881.44;5121813;27;20089;-32
2022/04/02 02:04:55;;;;;;;0.20;0.20;;;;;;;19.45;35.92;100894.41;5141264;27;20047;-33
2022/04/02 02:07:21;;;;;;;0.20;0.20;;;;;;;19.44;35.63;100893.59;5143735;27;20496;-36
2022/04/02 02:09:47;;;;;;;0.20;0.20;;;;;;;19.45;35.84;100888.88;5136286;27;20043;-34
2022/04/02 02:12:12;;;;;;;0.20;0.20;;;;;;;19.45;35.67;100892.47;5145194;27;20042;-33
2022/04/02 02:14:38;;;;;;;0.20;0.20;;;;;;;19.45;35.96;100891.66;5142323;27;20043;-36
2022/04/02 02:17:04;;;;;;;0.20;0.20;;;;;;;19.44;35.88;100885.31;5145787;27;20043;-34
2022/04/02 02:19:30;;;;;;;0.20;0.20;;;;;;;19.43;35.70;100883.66;5138521;27;20405;-32
2022/04/02 02:21:56;;;;;;;0.20;0.20;;;;;;;19.44;35.62;100888.06;5140126;27;20039;-36
2022/04/02 02:24:22;;;;;;;0.20;0.20;;;;;;;19.44;35.87;100887.25;5140189;27;20133;-34
2022/04/02 02:26:48;;;;;;;0.20;0.20;;;;;;;19.44;35.79;100890.00;5143251;27;20061;-33
2022/04/02 02:29:14;;;;;;;0.20;0.20;;;;;;;19.43;35.62;100885.56;5133872;27;20050;-37
2022/04/02 02:31:39;;;;;;;0.20;0.20;;;;;;;19.43;35.64;100885.56;5143888;27;20103;-33
2022/04/02 02:36:51;;;;;;;0.20;0.20;;;;;;;19.42;36.13;100889.44;5123839;27;20127;-34
2022/04/02 02:39:16;;;;;;;0.20;0.20;;;;;;;19.42;35.82;100893.03;5137665;27;20043;-34
2022/04/02 02:41:42;;;;;;;0.20;0.20;;;;;;;19.42;35.62;100892.22;5138165;27;20046;-37
2022/04/02 02:44:08;;;;;;;0.20;0.20;;;;;;;19.42;35.57;100897.72;5135420;27;20053;-35
2022/04/02 02:46:34;;;;;;;0.20;0.20;;;;;;;19.42;35.91;100897.72;5141221;27;20047;-31
2022/04/02 02:49:00;;;;;;;0.20;0.20;;;;;;;19.41;35.70;100902.44;5135521;27;20078;-35
2022/04/02 02:51:26;;;;;;;0.20;0.20;;;;;;;19.42;35.74;100894.97;5147482;27;20079;-32
2022/04/02 02:53:51;;;;;;;0.20;0.20;;;;;;;19.40;35.66;100903.53;5138015;27;20043;-34
2022/04/02 02:56:17;;;;;;;0.20;0.20;;;;;;;19.41;35.63;100893.31;5143152;27;20049;-32
2022/04/02 02:58:43;;;;;;;0.20;0.20;;;;;;;19.40;35.93;100903.53;5138311;27;20442;-37
2022/04/02 03:01:09;;;;;;;0.20;0.20;;;;;;;19.40;35.85;100906.31;5143151;27;20401;-36
2022/04/02 03:03:35;;;;;;;0.20;0.20;;;;;;;19.40;35.94;100911.00;5144172;27;20043;-33
2022/04/02 03:06:01;;;;;;;0.20;0.20;;;;;;;19.40;35.64;100914.59;5140976;27;20039;-35
2022/04/02 03:08:26;;;;;;;0.30;0.30;;;;;;;19.40;35.62;100909.06;5145956;27;20396;-33
2022/04/02 03:10:53;;;;;;;0.20;0.20;;;;;;;19.39;35.88;100907.44;5145727;27;20043;-34
2022/04/02 03:13:18;;;;;;;0.20;0.20;;;;;;;19.40;35.81;100911.84;5124033;27;20086;-32
2022/04/02 03:15:44;;;;;;;0.22;0.22;;;;;;;19.39;35.91;100912.13;5145767;27;20047;-32
2022/04/02 03:18:09;;;;;;;0.20;0.20;;;;;;;19.40;35.74;100913.78;5145761;27;20482;-32
2022/04/02 03:20:36;;;;;;;0.20;0.20;;;;;;;19.39;35.73;100912.94;5139647;27;20107;-35
2022/04/02 03:23:03;;;;;;;0.20;0.20;;;;;;;19.39;35.68;100920.41;5121491;27;20540;-34
2022/04/02 03:25:29;;;;;;;0.20;0.20;;;;;;;19.39;35.71;100914.88;5123779;27;20135;-32
2022/04/02 03:27:55;;;;;;;0.30;0.30;;;;;;;19.38;35.90;100914.03;5145830;27;20070;-31
2022/04/02 03:30:22;;;;;;;0.20;0.20;;;;;;;19.39;35.59;100920.41;5126129;27;20047;-33
2022/04/02 03:32:48;;;;;;;0.20;0.20;;;;;;;19.38;35.69;100915.97;5143146;27;20125;-33
2022/04/02 03:35:14;;;;;;;0.20;0.20;;;;;;;19.38;35.97;100921.50;5122898;27;20074;-36
2022/04/02 03:37:42;;;;;;;0.20;0.20;;;;;;;19.39;35.68;100920.41;5125952;27;20075;-34
2022/04/02 03:40:10;;;;;;;0.20;0.20;;;;;;;19.38;35.84;100930.59;5104300;27;20130;-32
2022/04/02 03:42:36;;;;;;;0.20;0.20;;;;;;;19.38;35.65;100929.78;5120626;27;20085;-32
2022/04/02 03:45:03;;;;;;;0.20;0.20;;;;;;;19.37;35.89;100931.72;5142243;27;20538;-32
2022/04/02 03:47:29;;;;;;;0.20;0.20;;;;;;;19.37;35.74;100933.66;5147168;27;20077;-35
2022/04/02 03:49:54;;;;;;;0.20;0.20;;;;;;;19.37;35.84;100936.41;5142771;27;20039;-33
2022/04/02 03:52:20;;;;;;;0.20;0.20;;;;;;;19.37;35.89;100940.00;5138801;27;20046;-36
2022/04/02 03:54:46;;;;;;;0.20;0.20;;;;;;;19.37;36.01;100931.72;5139615;27;20091;-32
2022/04/02 03:57:13;;;;;;;0.20;0.20;;;;;;;19.37;35.69;100934.47;5140610;27;20043;-34
2022/04/02 03:59:40;;;;;;;0.20;0.20;;;;;;;19.36;36.09;100935.59;5140016;27;20133;-34
2022/04/02 04:02:06;;;;;;;0.20;0.20;;;;;;;19.36;35.82;100946.66;5120512;27;20301;-32
2022/04/02 04:04:32;;;;;;;0.20;0.20;;;;;;;19.36;35.63;100940.31;5106268;27;20053;-33
2022/04/02 04:06:58;;;;;;;0.20;0.20;;;;;;;19.36;35.75;100945.81;5142360;27;20122;-33
2022/04/02 04:09:24;;;;;;;0.20;0.20;;;;;;;19.36;35.79;100941.13;5108467;27;20046;-33
2022/04/02 04:11:50;;;;;;;0.20;0.20;;;;;;;19.35;35.79;100946.94;5118455;27;20054;-35
2022/04/02 04:14:16;;;;;;;0.20;0.20;;;;;;;19.36;35.87;100948.59;5136621;27;20101;-33
2022/04/02 04:16:42;;;;;;;0.20;0.20;;;;;;;19.35;35.71;100953.28;5147547;27;20389;-34
2022/04/02 04:19:08;;;;;;;0.20;0.20;;;;;;;19.35;35.82;100956.03;5118299;27;20043;-33
2022/04/02 04:21:34;;;;;;;0.20;0.20;;;;;;;19.34;35.95;100948.84;5140090;27;20080;-34
2022/04/02 04:24:00;;;;;;;0.20;0.20;;;;;;;19.35;35.69;100955.22;5144896;27;20043;-35
2022/04/02 04:26:26;;;;;;;0.20;0.20;;;;;;;19.35;35.87;100952.47;5139123;27;20417;-34
2022/04/02 04:28:52;;;;;;;0.20;0.20;;;;;;;19.33;35.75;100958.25;5142457;27;20465;-32
2022/04/02 04:31:18;;;;;;;0.20;0.20;;;;;;;19.34;35.88;100956.31;5122894;27;20050;-32
2022/04/02 04:33:45;;;;;;;0.20;0.20;;;;;;;19.34;35.74;100959.06;5142271;27;20050;-34
2022/04/02 04:36:12;;;;;;;0.20;0.20;;;;;;;19.34;36.02;100959.06;5119744;27;20498;-32
2022/04/02 04:38:37;;;;;;;0.20;0.20;;;;;;;19.34;36.05;100968.16;5141341;27;20070;-33
2022/04/02 04:41:03;;;;;;;0.20;0.20;;;;;;;19.34;36.00;100964.59;5136063;27;20445;-33
2022/04/02 04:43:30;;;;;;;0.20;0.20;;;;;;;19.34;35.86;100970.94;5142588;27;20554;-34
2022/04/02 04:45:56;;;;;;;0.20;0.20;;;;;;;19.33;35.76;100974.81;5122396;27;20526;-32
2022/04/02 04:48:22;;;;;;;0.20;0.20;;;;;;;19.33;35.75;100980.34;5142287;27;20082;-34
2022/04/02 04:50:47;;;;;;;0.20;0.20;;;;;;;19.33;35.68;100976.75;5107945;27;20046;-32
2022/04/02 04:53:14;;;;;;;0.20;0.20;;;;;;;19.34;35.89;100989.44;5139520;27;20047;-33
2022/04/02 04:55:40;;;;;;;0.20;0.20;;;;;;;19.32;35.77;100991.66;5121823;27;20043;-35
2022/04/02 04:58:06;;;;;;;0.20;0.20;;;;;;;19.33;35.96;100988.63;5140814;27;20515;-32
2022/04/02 05:00:33;;;;;;;0.20;0.20;;;;;;;19.32;36.02;100991.66;5119448;27;20208;-34
2022/04/02 05:02:58;;;;;;;0.20;0.20;;;;;;;19.32;35.72;100994.44;5142159;27;20134;-30
2022/04/02 05:05:25;;;;;;;0.20;0.20;;;;;;;19.33;35.71;100994.13;5141768;27;20043;-34
2022/04/02 05:08:00;;;;;;;0.20;0.20;;;;;;;19.30;35.91;100995.53;5135925;27;20133;-34
2022/04/02 05:10:26;;;;;;;0.20;0.20;;;;;;;19.33;35.89;101009.88;5118098;27;20154;-32
2022/04/02 05:12:52;;;;;;;0.20;0.20;;;;;;;19.31;35.89;101004.66;5128391;27;20129;-35
2022/04/02 05:15:18;;;;;;;0.20;0.20;;;;;;;19.30;35.88;101000.25;5138662;27;20077;-32
2022/04/02 05:17:44;;;;;;;0.20;0.20;;;;;;;19.32;35.99;101008.25;5146183;27;20043;-36
2022/04/02 05:20:11;;;;;;;0.20;0.20;;;;;;;19.30;35.77;101003.00;5126046;27;20465;-32
2022/04/02 05:22:37;;;;;;;0.20;0.20;;;;;;;19.30;35.79;101001.06;5146400;27;20480;-32
2022/04/02 05:25:03;;;;;;;0.20;0.20;;;;;;;19.30;35.99;101003.00;5143831;27;20072;-35
2022/04/02 05:27:29;;;;;;;0.20;0.20;;;;;;;19.30;35.88;101008.53;5141262;27;20522;-33
2022/04/02 05:29:55;;;;;;;0.30;0.30;;;;;;;19.30;35.87;101019.56;5144254;27;20050;-34
2022/04/02 05:32:20;;;;;;;0.20;0.20;;;;;;;19.30;35.71;101022.34;5140193;27;20051;-35
2022/04/02 05:34:46;;;;;;;0.28;0.28;;;;;;;19.29;36.00;101021.47;5145133;27;20134;-32
2022/04/02 05:37:13;;;;;;;0.20;0.20;;;;;;;19.30;35.90;101028.69;5124761;27;20099;-36
2022/04/02 05:39:41;;;;;;;0.20;0.20;;;;;;;19.29;36.11;101034.47;5119482;27;20078;-35
2022/04/02 05:42:07;;;;;;;0.20;0.20;;;;;;;19.30;35.97;101031.44;5144386;27;20304;-36
2022/04/02 05:44:33;;;;;;;0.20;0.20;;;;;;;19.29;35.78;101034.47;5142274;27;20402;-32
2022/04/02 05:46:59;;;;;;;0.20;0.20;;;;;;;19.30;35.77;101044.44;5141649;27;20104;-34
2022/04/02 05:49:41;;;;;;;0.20;0.20;;;;;;;19.29;35.73;101051.03;5133239;27;20039;-35
2022/04/02 05:52:07;;;;;;;0.20;0.20;;;;;;;19.29;36.05;101049.09;5140619;27;20374;-36
2022/04/02 05:54:34;;;;;;;0.20;0.20;;;;;;;19.29;35.90;101056.56;5142254;27;20086;-34
2022/04/02 05:57:00;;;;;;;0.20;0.20;;;;;;;19.29;35.82;101053.78;5138984;27;20745;-33
2022/04/02 05:59:25;;;;;;;0.20;0.20;;;;;;;19.29;35.80;101056.56;5136547;27;20470;-34
2022/04/02 06:01:51;;;;;;;0.20;0.20;;;;;;;19.27;36.03;101067.88;5139494;27;20031;-35
2022/04/02 06:04:17;;;;;;;0.20;0.20;;;;;;;19.28;35.76;101065.94;5142122;27;20465;-33
2022/04/02 06:06:42;;;;;;;0.20;0.20;;;;;;;19.27;36.08;101073.41;5120917;27;20043;-36
2022/04/02 06:09:08;;;;;;;0.20;0.20;;;;;;;19.27;35.95;101069.81;5141624;27;20047;-37
2022/04/02 06:11:34;;;;;;;0.20;0.20;;;;;;;19.28;35.90;101077.81;5137621;27;20050;-33
2022/04/02 06:14:00;;;;;;;0.20;0.20;;;;;;;19.27;35.93;101075.34;5138102;27;20043;-38
2022/04/02 06:16:26;;;;;;;0.22;0.22;;;;;;;19.27;35.96;101075.34;5138567;27;20092;-32
2022/04/02 06:18:53;;;;;;;0.20;0.20;;;;;;;19.27;36.06;101072.59;5102751;27;20047;-34
2022/04/02 06:21:19;;;;;;;0.20;0.20;;;;;;;19.27;35.80;101084.44;5120798;27;20126;-34
2022/04/02 06:23:45;;;;;;;0.20;0.20;;;;;;;19.28;36.00;101082.53;5144233;27;20078;-33
2022/04/02 06:26:10;;;;;;;0.20;0.20;;;;;;;19.26;35.80;101093.84;5141866;27;20035;-36
2022/04/02 06:28:37;;;;;;;0.20;0.20;;;;;;;19.27;35.84;101089.16;5135472;27;20477;-34
2022/04/02 06:31:04;;;;;;;0.20;0.20;;;;;;;19.27;35.85;101086.41;5121860;27;20039;-35
2022/04/02 06:33:31;;;;;;;0.30;0.30;;;;;;;19.27;35.82;101094.69;5141220;27;20481;-32
2022/04/02 06:35:57;;;;;;;0.20;0.20;;;;;;;19.26;35.72;101091.09;5141331;27;20130;-33
2022/04/02 06:38:23;;;;;;;0.20;0.20;;;;;;;19.25;35.96;101097.69;5145203;27;20102;-34
2022/04/02 06:40:48;;;;;;;0.20;0.20;;;;;;;19.26;35.90;101093.03;5145383;27;20058;-36
2022/04/02 06:43:14;;;;;;;0.20;0.20;;;;;;;19.26;35.98;101098.56;5144254;27;20128;-34
2022/04/02 06:45:40;;;;;;;0.20;0.20;;;;;;;19.26;35.92;101104.06;5143850;27;20121;-33
2022/04/02 06:48:07;;;;;;;0.20;0.20;;;;;;;19.25;36.05;101111.50;5144694;27;20049;-33
2022/04/02 06:50:33;;;;;;;0.20;0.20;;;;;;;19.25;36.16;101110.69;5135748;27;20082;-33
2022/04/02 06:52:58;;;;;;;0.20;0.20;;;;;;;19.26;36.05;101120.63;5104715;27;20036;-37
2022/04/02 06:55:32;;;;;;;0.20;0.20;;;;;;;19.25;36.00;101119.78;5142204;27;20062;-36
2022/04/02 06:57:58;;;;;;;0.20;0.20;;;;;;;19.25;36.01;101114.25;5125423;27;20120;-33
2022/04/02 07:00:24;;;;;;;0.20;0.20;;;;;;;19.25;35.83;101125.31;5141789;27;20042;-36
2022/04/02 07:02:50;;;;;;;0.20;0.20;;;;;;;19.25;36.02;101124.47;5143183;27;20050;-33
2022/04/02 07:05:16;;;;;;;0.20;0.20;;;;;;;19.26;35.99;101131.69;5139765;27;20058;-32
2022/04/02 07:07:42;;;;;;;0.20;0.20;;;;;;;19.23;35.77;101130.28;5145512;27;20074;-33
2022/04/02 07:10:08;;;;;;;0.20;0.20;;;;;;;19.25;35.83;101127.25;5144621;27;20050;-38
2022/04/02 07:12:34;;;;;;;0.20;0.20;;;;;;;19.24;36.06;101137.47;5127283;27;20070;-36
2022/04/02 07:15:01;;;;;;;0.20;0.20;;;;;;;19.24;35.94;101129.19;5144397;27;20124;-32
2022/04/02 07:17:27;;;;;;;0.20;0.20;;;;;;;19.24;35.94;101137.47;5120264;27;20516;-35
2022/04/02 07:19:57;;;;;;;0.20;0.20;;;;;;;19.25;35.73;101143.81;5135808;27;20464;-32
2022/04/02 07:22:24;;;;;;;0.20;0.20;;;;;;;19.24;35.71;101137.47;5123429;27;20137;-33
2022/04/02 07:24:52;;;;;;;0.20;0.20;;;;;;;19.23;35.72;101146.84;5142256;27;20116;-35
2022/04/02 07:27:21;;;;;;;0.20;0.20;;;;;;;19.23;35.82;101146.84;5124143;27;20130;-36
2022/04/02 07:29:49;;;;;;;0.20;0.20;;;;;;;19.23;35.83;101149.63;5107657;27;20074;-32
2022/04/02 07:32:15;;;;;;;0.20;0.20;;;;;;;19.23;35.89;101146.03;5142027;27;20138;-32
2022/04/02 07:34:40;;;;;;;0.20;0.20;;;;;;;19.23;35.73;101159.84;5140448;27;20121;-36
2022/04/02 07:37:46;;;;;;;0.20;0.20;;;;;;;19.24;36.02;101158.72;5146701;27;20043;-32
2022/04/02 07:40:30;;;;;;;0.20;0.20;;;;;;;19.23;35.79;101174.47;5125355;27;20046;-32
2022/04/02 07:43:20;;;;;;;0.20;0.20;;;;;;;19.23;36.04;101173.66;5143646;27;20105;-33
2022/04/02 07:45:52;;;;;;;0.20;0.20;;;;;;;19.22;35.85;101167.28;5124607;27;20084;-33
2022/04/02 07:48:19;;;;;;;0.20;0.20;;;;;;;19.22;36.04;101183.88;5117965;27;20060;-33
2022/04/02 07:50:45;;;;;;;0.20;0.20;;;;;;;19.23;35.77;101179.16;5142671;27;20473;-33
2022/04/02 07:53:17;;;;;;;0.20;0.20;;;;;;;19.22;36.03;101188.56;5144430;27;20078;-34
2022/04/02 07:55:43;;;;;;;0.20;0.20;;;;;;;19.22;35.93;101185.78;5141066;27;20039;-35
2022/04/02 07:58:10;;;;;;;0.20;0.20;;;;;;;19.21;35.89;101186.88;5142659;27;20060;-35
2022/04/02 08:00:36;;;;;;;0.20;0.20;;;;;;;19.21;35.78;101190.50;5141013;27;20467;-35
2022/04/02 08:03:02;;;;;;;0.20;0.20;;;;;;;19.22;35.99;101197.66;5144353;27;20049;-33
2022/04/02 08:05:28;;;;;;;0.20;0.20;;;;;;;19.22;36.03;101199.59;5141194;27;20477;-36
2022/04/02 08:07:55;;;;;;;0.20;0.20;;;;;;;19.21;35.88;101209.81;5145559;27;20069;-35
2022/04/02 08:10:23;;;;;;;0.20;0.20;;;;;;;19.21;35.96;101198.78;5142096;27;20081;-33
2022/04/02 08:12:49;;;;;;;0.20;0.20;;;;;;;19.21;35.78;101204.31;5122557;27;20481;-37
2022/04/02 08:15:17;;;;;;;0.20;0.20;;;;;;;19.21;35.85;101207.06;5121752;27;20123;-32
2022/04/02 08:17:45;;;;;;;0.20;0.20;;;;;;;19.21;35.74;101203.44;5126832;27;20262;-37
2022/04/02 08:20:11;;;;;;;;;;;;;;;19.21;35.93;101204.31;5124702;27;20073;-34
2022/04/02 08:22:37;;;;;;;0.20;0.20;;;;;;;19.19;36.04;101209.25;5125082;27;20010;-37
2022/04/02 08:25:03;;;;;;;0.25;0.25;;;;;;;19.20;36.00;101212.84;5145088;27;20043;-34
2022/04/02 08:27:34;;;;;;;0.20;0.20;;;;;;;19.20;35.84;101212.84;5144957;27;20079;-34
2022/04/02 08:30:10;;;;;;;0.20;0.20;;;;;;;19.20;35.77;101216.44;5118670;27;20066;-36
2022/04/02 08:33:02;;;;;;;0.20;0.20;;;;;;;19.20;35.75;101212.84;5144424;27;20129;-34
2022/04/02 08:35:34;;;;;;;0.20;0.20;;;;;;;19.20;35.84;101226.63;5126262;27;20134;-34
2022/04/02 08:38:08;;;;;;;0.20;0.20;;;;;;;19.19;35.97;101225.81;5140305;27;20583;-34
2022/04/02 08:40:45;;;;;;;0.20;0.20;;;;;;;19.19;35.89;101225.81;5141589;27;20082;-34
2022/04/02 08:43:51;;;;;;;0.20;0.20;;;;;;;19.19;35.88;101231.34;5144906;27;20042;-35
2022/04/02 08:46:41;;;;;;;0.20;0.20;;;;;;;19.19;35.80;101227.75;5118619;27;20125;-31
2022/04/02 08:49:21;;;;;;;0.20;0.20;;;;;;;19.19;35.72;101234.09;5120323;27;20058;-34
2022/04/02 08:51:48;;;;;;;0.20;0.20;;;;;;;19.18;35.90;101224.16;5146392;27;20477;-32
2022/04/02 08:54:27;;;;;;;0.20;0.20;;;;;;;19.18;35.79;101232.44;5142169;27;20054;-33
2022/04/02 08:57:00;;;;;;;0.20;0.20;;;;;;;19.18;35.71;101229.69;5138107;27;20553;-36
2022/04/02 08:59:34;;;;;;;0.20;0.20;;;;;;;19.18;35.86;101239.91;5136186;27;20181;-33
2022/04/02 09:02:37;;;;;;;0.20;0.20;;;;;;;19.18;35.97;101257.28;5140608;27;20373;-32
2022/04/02 09:05:23;;;;;;;0.20;0.20;;;;;;;19.18;35.71;101250.94;5123336;27;20437;-33
2022/04/02 09:08:19;;;;;;;0.20;0.20;;;;;;;19.18;35.77;101256.47;5121999;27;20459;-33
2022/04/02 09:14:16;;;;;;;0.20;0.20;;;;;;;19.17;35.89;101263.94;5178217;27;20206;-33
2022/04/02 09:17:11;;;;;;;0.20;0.20;;;;;;;19.17;35.81;101261.16;5135277;27;20069;-33
2022/04/02 09:19:51;;;;;;;0.20;0.20;;;;;;;19.17;35.83;101266.69;5146981;27;20537;-32
2022/04/02 09:22:31;;;;;;;0.20;0.20;;;;;;;19.16;35.83;101265.00;5145759;27;20086;-35
2022/04/02 09:25:28;;;;;;;0.20;0.20;;;;;;;19.18;35.92;101270.28;5161750;27;20533;-33
2022/04/02 09:31:09;;;;;;;0.20;0.20;;;;;;;19.18;36.00;101281.31;5179691;27;20205;-32
2022/04/02 09:34:07;;;;;;;0.20;0.20;;;;;;;19.17;35.74;101280.50;5138932;27;20054;-31
2022/04/02 09:36:59;;;;;;;0.20;0.20;;;;;;;19.16;35.98;101276.06;5148670;27;20123;-32
2022/04/02 09:39:53;;;;;;;0.20;0.20;;;;;;;19.17;35.94;101285.16;5133124;27;20174;-30
2022/04/02 09:42:45;;;;;;;0.20;0.20;;;;;;;19.16;35.83;101284.34;5136386;27;20058;-33
2022/04/02 09:45:13;;;;;;;0.20;0.20;;;;;;;19.17;35.79;101290.69;5140875;27;20078;-33
2022/04/02 09:50:36;;;;;;;0.20;0.20;;;;;;;19.16;35.92;101289.03;5161796;27;20210;-30
2022/04/02 09:53:29;;;;;;;0.20;0.20;;;;;;;19.16;35.80;101291.78;5162867;27;20070;-34
2022/04/02 09:56:23;;;;;;;0.20;0.20;;;;;;;19.16;35.72;101291.78;5143922;27;20075;-31
2022/04/02 09:59:03;;;;;;;0.20;0.20;;;;;;;19.16;35.82;101300.06;5145701;27;20454;-34
2022/04/02 10:01:31;;;;;;;0.20;0.20;;;;;;;19.16;36.17;101302.84;5143017;27;20039;-32
2022/04/02 10:04:00;;;;;;;0.20;0.20;;;;;;;19.16;35.66;101300.91;5144141;27;20039;-33
2022/04/02 10:06:42;;;;;;;0.20;0.20;;;;;;;19.16;35.66;101305.59;5146328;27;20141;-32
2022/04/02 10:09:12;;;;;;;0.20;0.20;;;;;;;19.15;35.73;101299.25;5164009;27;20184;-33
2022/04/02 10:11:42;;;;;;;0.20;0.20;;;;;;;19.15;35.96;101306.69;5141427;27;20065;-33
2022/04/02 10:14:07;;;;;;;0.20;0.20;;;;;;;19.15;35.81;101317.75;5162736;27;20163;-32
2022/04/02 10:16:35;;;;;;;0.20;0.20;;;;;;;19.16;35.77;101309.19;5164409;27;20653;-31
2022/04/02 10:19:07;;;;;;;0.20;0.20;;;;;;;19.15;35.78;101306.69;5158974;27;20390;-35
2022/04/02 10:21:35;;;;;;;0.20;0.20;;;;;;;19.14;35.84;101313.34;5128152;27;20078;-33
2022/04/02 10:24:21;;;;;;;0.20;0.20;;;;;;;19.15;36.17;101315.81;5141732;27;20066;-33
2022/04/02 10:26:52;;;;;;;0.20;0.20;;;;;;;19.15;35.75;101312.22;5140382;27;20050;-33
2022/04/02 10:29:43;;;;;;;0.20;0.20;;;;;;;19.14;35.83;101308.63;5145499;27;20125;-35
2022/04/02 10:32:49;;;;;;;0.20;0.20;;;;;;;19.14;35.78;101311.41;5146243;27;20066;-35
2022/04/02 10:35:14;;;;;;;0.20;0.20;;;;;;;19.14;35.91;101305.88;5132175;27;20134;-34
2022/04/02 10:38:08;;;;;;;0.20;0.20;;;;;;;19.14;35.79;101310.56;5163816;27;20388;-34
2022/04/02 10:40:41;;;;;;;0.20;0.20;;;;;;;19.14;35.89;101302.28;5156896;27;20085;-33
2022/04/02 10:43:13;;;;;;;0.20;0.20;;;;;;;19.14;35.96;101305.06;5156832;27;20062;-36
2022/04/02 10:45:39;;;;;;;0.20;0.20;;;;;;;19.14;35.73;101310.56;5164471;27;20069;-34
2022/04/02 10:48:12;;;;;;;0.20;0.20;;;;;;;19.13;35.66;101312.50;5161867;27;20091;-35
2022/04/02 10:50:39;;;;;;;0.20;0.20;;;;;;;19.14;35.92;101313.34;5142426;27;20083;-34
2022/04/02 10:53:06;;;;;;;0.20;0.20;;;;;;;19.14;35.97;101316.91;5144388;27;20083;-33
2022/04/02 10:55:32;;;;;;;0.20;0.20;;;;;;;19.13;35.96;101317.16;5166744;27;20153;-34
2022/04/02 10:57:59;;;;;;;0.20;0.20;;;;;;;19.14;35.86;101319.69;5139201;27;20482;-32
2022/04/02 11:00:29;;;;;;;0.20;0.20;;;;;;;19.14;35.67;101324.38;5122634;27;20503;-35
2022/04/02 11:03:03;;;;;;;0.20;0.20;;;;;;;19.13;36.01;101312.50;5147687;27;20070;-35
2022/04/02 11:05:34;;;;;;;0.20;0.20;;;;;;;19.14;35.91;101325.19;5129171;27;21949;-34
2022/04/02 11:08:05;;;;;;;0.20;0.20;;;;;;;19.15;36.03;101326.03;5150484;27;20073;-33
2022/04/02 11:10:34;;;;;;;0.20;0.20;;;;;;;19.13;35.79;101318.03;5149792;27;20650;-32
2022/04/02 11:13:00;;;;;;;0.20;0.20;;;;;;;19.13;35.78;101326.31;5148464;27;20299;-34
2022/04/02 11:15:27;;;;;;;0.20;0.20;;;;;;;19.13;35.82;101326.31;5148494;27;20535;-33
2022/04/02 11:17:57;;;;;;;0.20;0.20;;;;;;;19.14;35.67;101332.66;5148022;27;20115;-32
2022/04/02 11:20:27;;;;;;;0.20;0.20;;;;;;;19.13;35.82;101334.59;5130012;27;20078;-32
2022/04/02 11:28:14;;;;;;;0.20;0.20;;;;;;;19.13;35.76;101342.03;5164622;27;20124;-30
2022/04/02 11:30:42;;;;;;;0.20;0.20;;;;;;;19.12;35.83;101341.19;5164848;27;20042;-34
2022/04/02 11:33:17;;;;;;;0.20;0.20;;;;;;;19.12;35.85;101332.91;5147472;27;20125;-33
2022/04/02 11:35:48;;;;;;;0.20;0.20;;;;;;;19.13;35.79;101339.25;5165099;27;20042;-35
2022/04/02 11:41:21;;;;;;;0.20;0.20;;;;;;;19.13;35.82;101340.13;5168267;27;20141;-30
2022/04/02 11:43:48;;;;;;;0.20;0.20;;;;;;;19.12;35.77;101340.38;5130639;27;20074;-31
2022/04/02 11:46:15;;;;;;;0.20;0.20;;;;;;;19.11;35.75;101353.34;5151580;27;20129;-32
2022/04/02 11:48:58;;;;;;;0.20;0.20;;;;;;;19.11;35.71;101356.09;5156052;27;20046;-31
2022/04/02 11:51:27;;;;;;;0.20;0.20;;;;;;;19.12;36.00;101346.72;5129952;27;20127;-31
2022/04/02 11:54:00;;;;;;;0.20;0.20;;;;;;;19.12;35.91;101355.00;5129635;27;20123;-33
2022/04/02 11:56:28;;;;;;;0.30;0.30;;;;;;;19.13;35.95;101358.59;5136205;27;20126;-33